createdAt,value
2023-02-01T00:05:25.689Z,1.52
2023-02-01T00:10:50.681Z,1.60
2023-02-01T00:16:17.773Z,1.85
2023-02-01T00:21:45.684Z,1.67
2023-02-01T00:27:10.744Z,1.73
2023-02-01T00:32:34.711Z,1.85
2023-02-01T00:38:02.684Z,1.60
2023-02-01T00:43:28.706Z,1.60
2023-02-01T00:48:56.731Z,1.67
2023-02-01T00:54:24.938Z,1.52
2023-02-01T00:59:55.712Z,1.65
2023-02-01T01:05:20.714Z,1.63
2023-02-01T01:10:48.792Z,1.70
2023-02-01T01:16:16.774Z,1.70
2023-02-01T01:21:42.749Z,1.60
2023-02-01T01:27:10.734Z,1.70
2023-02-01T01:32:36.023Z,1.70
2023-02-01T01:38:01.727Z,1.95
2023-02-01T01:43:33.968Z,1.77
2023-02-01T01:49:02.974Z,1.90
2023-02-01T01:54:33.748Z,1.70
2023-02-01T02:00:08.760Z,2.10
2023-02-01T02:05:37.012Z,1.95
2023-02-01T02:11:10.741Z,1.73
2023-02-01T02:17:04.948Z,1.67
2023-02-01T02:22:58.808Z,2.13
2023-02-01T02:28:37.776Z,2.15
2023-02-01T02:34:22.853Z,2.28
2023-02-01T02:46:27.251Z,1.70
2023-02-01T02:52:18.835Z,2.20
2023-02-01T02:58:00.768Z,2.20
2023-02-01T03:03:38.815Z,2.00
2023-02-01T03:09:10.739Z,1.90
2023-02-01T03:20:34.960Z,2.38
2023-02-01T03:26:09.779Z,2.30
2023-02-01T03:31:34.823Z,2.10
2023-02-01T03:37:06.780Z,1.88
2023-02-01T03:42:40.795Z,2.20
2023-02-01T03:48:08.914Z,1.95
2023-02-01T03:53:39.078Z,2.17
2023-02-01T03:59:10.793Z,2.10
2023-02-01T04:04:35.808Z,2.08
2023-02-01T04:10:00.836Z,2.30
2023-02-01T04:20:47.779Z,2.08
2023-02-01T04:26:14.859Z,1.92
2023-02-01T04:31:43.863Z,2.25
2023-02-01T04:37:09.846Z,1.60
2023-02-01T04:42:33.821Z,1.80
2023-02-01T04:48:01.934Z,1.83
2023-02-01T04:53:26.805Z,1.50
2023-02-01T04:58:51.919Z,1.80
2023-02-01T05:04:19.960Z,1.40
2023-02-01T05:09:44.823Z,1.73
2023-02-01T05:15:09.857Z,1.80
2023-02-01T05:20:37.842Z,1.80
2023-02-01T05:26:02.965Z,1.70
2023-02-01T05:31:27.907Z,1.60
2023-02-01T05:36:54.831Z,2.10
2023-02-01T05:42:20.156Z,1.60
2023-02-01T05:47:43.828Z,2.10
2023-02-01T05:53:17.838Z,2.00
2023-02-01T05:58:42.944Z,1.95
2023-02-01T06:04:08.962Z,2.40
2023-02-01T06:09:37.823Z,1.88
2023-02-01T06:15:02.140Z,1.83
2023-02-01T06:20:27.878Z,1.90
2023-02-01T06:25:55.873Z,1.92
2023-02-01T06:31:20.978Z,2.00
2023-02-01T06:36:45.887Z,1.88
2023-02-01T06:42:13.872Z,2.13
2023-02-01T06:47:38.921Z,1.90
2023-02-01T06:53:03.881Z,1.83
2023-02-01T06:58:30.882Z,1.95
2023-02-01T07:03:58.848Z,2.25
2023-02-01T07:09:23.880Z,2.05
2023-02-01T07:14:52.017Z,1.60
2023-02-01T07:20:15.868Z,1.83
2023-02-01T07:25:40.883Z,1.65
2023-02-01T07:31:08.950Z,1.70
2023-02-01T07:36:34.849Z,1.60
2023-02-01T07:41:58.903Z,1.88
2023-02-01T07:47:27.897Z,1.80
2023-02-01T07:52:51.889Z,1.65
2023-02-01T07:58:17.881Z,1.80
2023-02-01T08:03:45.877Z,1.90
2023-02-01T08:09:10.940Z,1.80
2023-02-01T08:14:34.876Z,1.60
2023-02-01T08:20:02.910Z,1.85
2023-02-01T08:25:27.250Z,1.83
2023-02-01T08:30:52.944Z,1.60
2023-02-01T08:36:21.926Z,1.70
2023-02-01T08:41:47.924Z,2.08
2023-02-01T08:47:13.926Z,1.83
2023-02-01T08:52:41.898Z,1.92
2023-02-01T08:58:07.172Z,1.80
2023-02-01T09:03:31.916Z,1.85
2023-02-01T09:08:58.963Z,1.70
2023-02-01T09:14:23.898Z,1.90
2023-02-01T09:19:50.081Z,1.90
2023-02-01T09:25:19.258Z,1.65
2023-02-01T09:30:45.082Z,2.13
2023-02-01T09:36:11.949Z,1.80
2023-02-01T09:41:49.986Z,2.10
2023-02-01T09:47:22.957Z,1.67
2023-02-01T09:52:53.956Z,1.40
2023-02-01T09:58:25.927Z,1.80
2023-02-01T10:03:51.978Z,1.80
2023-02-01T10:09:39.286Z,1.25
2023-02-01T10:15:15.946Z,1.38
2023-02-01T10:20:54.939Z,1.27
2023-02-01T10:26:28.991Z,1.48
2023-02-01T10:31:57.060Z,1.65
2023-02-01T10:37:41.945Z,1.58
2023-02-01T10:43:10.964Z,1.67
2023-02-01T10:48:38.003Z,1.50
2023-02-01T10:54:08.958Z,1.38
2023-02-01T10:59:45.877Z,1.50
2023-02-01T11:05:19.969Z,1.50
2023-02-01T11:10:55.001Z,1.20
2023-02-01T11:16:25.057Z,1.42
2023-02-01T11:21:51.996Z,1.40
2023-02-01T11:27:27.791Z,1.48
2023-02-01T11:32:55.008Z,1.70
2023-02-01T11:38:32.061Z,1.30
2023-02-01T11:44:12.169Z,1.40
2023-02-01T11:49:37.984Z,1.15
2023-02-01T11:55:23.964Z,1.58
2023-02-01T12:01:06.981Z,1.30
2023-02-01T12:06:40.035Z,1.45
2023-02-01T12:12:18.038Z,1.50
2023-02-01T12:18:10.006Z,1.73
2023-02-01T12:29:34.020Z,1.20
2023-02-01T12:35:26.087Z,1.92
2023-02-01T12:46:35.345Z,1.38
2023-02-01T12:52:04.136Z,1.52
2023-02-01T12:57:36.050Z,1.65
2023-02-01T13:03:17.018Z,1.58
2023-02-01T13:08:52.029Z,1.17
2023-02-01T13:14:22.064Z,1.38
2023-02-01T13:19:55.033Z,1.58
2023-02-01T13:25:28.048Z,1.50
2023-02-01T13:31:29.144Z,1.40
2023-02-01T13:37:19.057Z,1.52
2023-02-01T13:42:58.464Z,1.38
2023-02-01T13:48:40.575Z,1.60
2023-02-01T13:59:58.281Z,1.65
2023-02-01T14:06:10.058Z,1.58
2023-02-01T14:11:54.047Z,1.63
2023-02-01T14:17:44.057Z,1.75
2023-02-01T14:23:18.061Z,1.65
2023-02-01T14:28:49.265Z,1.70
2023-02-01T14:34:16.095Z,1.60
2023-02-01T14:40:01.094Z,1.50
2023-02-01T14:45:57.279Z,1.25
2023-02-01T14:51:28.090Z,1.50
2023-02-01T14:56:52.059Z,1.40
2023-02-01T15:02:39.273Z,1.55
2023-02-01T15:08:11.055Z,1.27
2023-02-01T15:13:38.170Z,1.25
2023-02-01T15:19:18.273Z,1.27
2023-02-01T15:24:46.043Z,1.35
2023-02-01T15:30:16.135Z,1.65
2023-02-01T15:35:54.083Z,1.40
2023-02-01T15:41:25.135Z,1.20
2023-02-01T15:46:53.088Z,1.30
2023-02-01T15:52:32.139Z,1.73
2023-02-01T15:57:59.058Z,1.05
2023-02-01T16:03:50.098Z,1.20
2023-02-01T16:09:23.300Z,1.30
2023-02-01T16:14:50.115Z,1.15
2023-02-01T16:20:17.133Z,1.05
2023-02-01T16:25:42.225Z,0.90
2023-02-01T16:31:10.396Z,1.15
2023-02-01T16:36:36.187Z,1.20
2023-02-01T16:42:04.302Z,1.08
2023-02-01T16:47:34.109Z,0.80
2023-02-01T16:52:59.283Z,1.02
2023-02-01T16:58:23.164Z,0.70
2023-02-01T17:03:58.219Z,0.40
2023-02-01T17:09:25.145Z,0.50
2023-02-01T17:14:55.147Z,0.50
2023-02-01T17:20:30.122Z,1.10
2023-02-01T17:25:55.146Z,0.90
2023-02-01T17:31:24.774Z,0.77
2023-02-01T17:36:52.128Z,0.80
2023-02-01T17:42:22.123Z,1.17
2023-02-01T17:47:46.128Z,1.15
2023-02-01T17:53:16.178Z,1.27
2023-02-01T17:58:42.160Z,1.00
2023-02-01T18:04:13.187Z,1.10
2023-02-01T18:09:41.135Z,0.80
2023-02-01T18:15:06.450Z,1.00
2023-02-01T18:20:34.126Z,0.93
2023-02-01T18:26:01.171Z,1.20
2023-02-01T18:31:31.293Z,1.17
2023-02-01T18:36:55.212Z,1.23
2023-02-01T18:42:23.168Z,1.08
2023-02-01T18:47:47.505Z,1.00
2023-02-01T18:53:14.156Z,1.02
2023-02-01T18:58:42.143Z,0.93
2023-02-01T19:04:19.233Z,1.00
2023-02-01T19:09:48.368Z,0.90
2023-02-01T19:15:15.177Z,0.90
2023-02-01T19:20:40.185Z,1.40
2023-02-01T19:26:07.839Z,1.30
2023-02-01T19:31:36.282Z,1.10
2023-02-01T19:37:01.196Z,0.85
2023-02-01T19:42:26.182Z,1.15
2023-02-01T19:47:53.184Z,1.00
2023-02-01T19:53:19.767Z,1.30
2023-02-01T19:58:43.243Z,1.35
2023-02-01T20:04:18.758Z,1.23
2023-02-01T20:09:44.365Z,1.40
2023-02-01T20:15:10.333Z,1.40
2023-02-01T20:20:39.925Z,1.25
2023-02-01T20:26:04.277Z,1.65
2023-02-01T20:31:31.274Z,1.33
2023-02-01T20:36:58.202Z,0.90
2023-02-01T20:42:23.258Z,1.10
2023-02-01T20:47:50.222Z,0.90
2023-02-01T20:53:26.563Z,0.85
2023-02-01T20:58:51.255Z,0.90
2023-02-01T21:04:16.213Z,0.90
2023-02-01T21:09:47.249Z,1.00
2023-02-01T21:15:14.338Z,1.00
2023-02-01T21:20:39.248Z,0.90
2023-02-01T21:26:11.409Z,0.80
2023-02-01T21:31:37.260Z,1.08
2023-02-01T21:37:03.276Z,0.85
2023-02-01T21:42:31.407Z,1.02
2023-02-01T21:47:56.268Z,0.90
2023-02-01T21:53:20.262Z,1.00
2023-02-01T21:58:48.303Z,1.00
2023-02-01T22:04:13.410Z,1.10
2023-02-01T22:09:39.432Z,1.00
2023-02-01T22:15:07.250Z,1.20
2023-02-01T22:20:35.271Z,1.13
2023-02-01T22:26:01.458Z,1.10
2023-02-01T22:31:31.362Z,1.20
2023-02-01T22:36:55.279Z,1.50
2023-02-01T22:42:20.284Z,1.15
2023-02-01T22:47:47.385Z,1.45
2023-02-01T22:53:13.483Z,1.30
2023-02-01T22:58:37.255Z,1.50
2023-02-01T23:04:09.281Z,1.33
2023-02-01T23:09:35.515Z,1.60
2023-02-01T23:15:15.280Z,1.70
2023-02-01T23:20:42.237Z,1.50
2023-02-01T23:26:07.235Z,1.60
2023-02-01T23:31:33.329Z,1.30
2023-02-01T23:37:01.287Z,1.50
2023-02-01T23:42:26.446Z,1.27
2023-02-01T23:47:51.275Z,1.15
2023-02-01T23:53:18.265Z,1.10
2023-02-01T23:58:43.252Z,1.20
